sensor_id;sensor_type;location;lat;lon;timestamp;pressure;altitude;pressure_sealevel;temperature;humidity
56456;BME280;42354;53.218;6.564;2023-02-16T00:00:22;46991.38;;;-142.92;79.99
56456;BME280;42354;53.218;6.564;2023-02-16T00:02:51;47024.22;;;-142.92;80.40
56456;BME280;42354;53.218;6.564;2023-02-16T00:07:48;46987.28;;;-142.92;80.42
56456;BME280;42354;53.218;6.564;2023-02-16T00:10:13;46970.88;;;-142.92;80.59
56456;BME280;42354;53.218;6.564;2023-02-16T00:12:38;46993.44;;;-142.92;80.81
56456;BME280;42354;53.218;6.564;2023-02-16T00:15:24;47007.81;;;-142.92;80.85
56456;BME280;42354;53.218;6.564;2023-02-16T00:17:49;46966.75;;;-142.92;80.72
56456;BME280;42354;53.218;6.564;2023-02-16T00:20:16;46983.19;;;-142.92;80.78
56456;BME280;42354;53.218;6.564;2023-02-16T00:22:42;46999.59;;;-142.92;80.83
56456;BME280;42354;53.218;6.564;2023-02-16T00:25:07;46999.59;;;-142.92;81.27
56456;BME280;42354;53.218;6.564;2023-02-16T00:27:34;46997.53;;;-142.92;81.21
56456;BME280;42354;53.218;6.564;2023-02-16T00:30:14;46993.44;;;-142.92;80.98
56456;BME280;42354;53.218;6.564;2023-02-16T00:32:41;46987.28;;;-142.92;81.29
56456;BME280;42354;53.218;6.564;2023-02-16T00:35:17;47016.00;;;-142.92;81.28
56456;BME280;42354;53.218;6.564;2023-02-16T00:37:43;46979.06;;;-142.92;81.41
56456;BME280;42354;53.218;6.564;2023-02-16T00:40:12;46993.44;;;-142.92;81.45
56456;BME280;42354;53.218;6.564;2023-02-16T00:42:38;46987.28;;;-142.92;81.68
56456;BME280;42354;53.218;6.564;2023-02-16T00:45:14;46997.53;;;-142.92;81.74
56456;BME280;42354;53.218;6.564;2023-02-16T00:47:42;46968.81;;;-142.92;82.04
56456;BME280;42354;53.218;6.564;2023-02-16T00:50:22;46962.66;;;-142.92;81.86
56456;BME280;42354;53.218;6.564;2023-02-16T00:52:49;46983.19;;;-142.92;82.38
56456;BME280;42354;53.218;6.564;2023-02-16T00:55:19;46979.06;;;-142.92;82.32
56456;BME280;42354;53.218;6.564;2023-02-16T01:00:16;46979.06;;;-142.92;82.45
56456;BME280;42354;53.218;6.564;2023-02-16T01:02:45;46999.59;;;-142.92;82.53
56456;BME280;42354;53.218;6.564;2023-02-16T01:05:11;46977.03;;;-142.92;82.81
56456;BME280;42354;53.218;6.564;2023-02-16T01:07:37;46993.44;;;-142.92;82.79
56456;BME280;42354;53.218;6.564;2023-02-16T01:10:22;46995.50;;;-142.92;82.99
56456;BME280;42354;53.218;6.564;2023-02-16T01:13:07;46985.22;;;-142.92;83.30
56456;BME280;42354;53.218;6.564;2023-02-16T01:15:33;46999.59;;;-142.92;83.16
56456;BME280;42354;53.218;6.564;2023-02-16T01:17:58;47003.69;;;-142.92;83.29
56456;BME280;42354;53.218;6.564;2023-02-16T01:20:25;47007.81;;;-142.92;83.39
56456;BME280;42354;53.218;6.564;2023-02-16T01:22:50;46995.50;;;-142.92;83.48
56456;BME280;42354;53.218;6.564;2023-02-16T01:25:17;46997.53;;;-142.92;83.74
56456;BME280;42354;53.218;6.564;2023-02-16T01:27:43;46991.38;;;-142.92;83.93
56456;BME280;42354;53.218;6.564;2023-02-16T01:30:15;46987.28;;;-142.92;83.68
56456;BME280;42354;53.218;6.564;2023-02-16T01:32:41;46977.03;;;-142.92;84.16
56456;BME280;42354;53.218;6.564;2023-02-16T01:35:07;46987.28;;;-142.92;84.21
56456;BME280;42354;53.218;6.564;2023-02-16T01:37:32;46966.75;;;-142.92;84.33
56456;BME280;42354;53.218;6.564;2023-02-16T01:39:58;46991.38;;;-142.92;84.22
56456;BME280;42354;53.218;6.564;2023-02-16T01:42:52;47011.91;;;-142.92;84.06
56456;BME280;42354;53.218;6.564;2023-02-16T01:45:33;47007.81;;;-142.92;84.48
56456;BME280;42354;53.218;6.564;2023-02-16T01:48:05;46989.34;;;-142.92;84.58
56456;BME280;42354;53.218;6.564;2023-02-16T01:54:07;46979.06;;;-142.92;84.70
56456;BME280;42354;53.218;6.564;2023-02-16T01:56:43;46991.38;;;-142.92;84.58
56456;BME280;42354;53.218;6.564;2023-02-16T01:59:37;47001.66;;;-142.92;84.40
56456;BME280;42354;53.218;6.564;2023-02-16T02:04:48;47003.69;;;-142.92;84.63
56456;BME280;42354;53.218;6.564;2023-02-16T02:12:54;46987.28;;;-142.92;84.50
56456;BME280;42354;53.218;6.564;2023-02-16T02:15:24;46993.44;;;-142.92;84.67
56456;BME280;42354;53.218;6.564;2023-02-16T02:17:52;46987.28;;;-142.92;84.79
56456;BME280;42354;53.218;6.564;2023-02-16T02:20:21;46993.44;;;-142.92;84.91
56456;BME280;42354;53.218;6.564;2023-02-16T02:23:32;46979.06;;;-142.92;84.91
56456;BME280;42354;53.218;6.564;2023-02-16T02:31:44;47011.91;;;-142.92;84.55
56456;BME280;42354;53.218;6.564;2023-02-16T02:34:16;46997.53;;;-142.92;84.56
56456;BME280;42354;53.218;6.564;2023-02-16T02:37:02;46970.88;;;-142.92;84.82
56456;BME280;42354;53.218;6.564;2023-02-16T02:39:33;46970.88;;;-142.92;84.77
56456;BME280;42354;53.218;6.564;2023-02-16T02:42:13;47007.81;;;-142.92;84.88
56456;BME280;42354;53.218;6.564;2023-02-16T02:44:49;46997.53;;;-142.92;84.86
56456;BME280;42354;53.218;6.564;2023-02-16T02:47:16;46983.19;;;-142.92;85.09
56456;BME280;42354;53.218;6.564;2023-02-16T02:49:49;46995.50;;;-142.92;84.97
56456;BME280;42354;53.218;6.564;2023-02-16T02:52:14;47001.66;;;-142.92;85.47
56456;BME280;42354;53.218;6.564;2023-02-16T02:54:40;46987.28;;;-142.92;85.37
56456;BME280;42354;53.218;6.564;2023-02-16T03:00:26;46985.22;;;-142.92;85.33
56456;BME280;42354;53.218;6.564;2023-02-16T03:03:28;46974.97;;;-142.92;85.13
56456;BME280;42354;53.218;6.564;2023-02-16T03:08:26;46991.38;;;-142.92;85.19
56456;BME280;42354;53.218;6.564;2023-02-16T03:10:58;46999.59;;;-142.92;85.13
56456;BME280;42354;53.218;6.564;2023-02-16T03:13:45;47001.66;;;-142.92;85.19
56456;BME280;42354;53.218;6.564;2023-02-16T03:16:18;46999.59;;;-142.92;84.98
56456;BME280;42354;53.218;6.564;2023-02-16T03:18:45;46999.59;;;-142.92;84.97
56456;BME280;42354;53.218;6.564;2023-02-16T03:21:31;47001.66;;;-142.92;84.93
56456;BME280;42354;53.218;6.564;2023-02-16T03:24:24;46995.50;;;-142.92;84.49
56456;BME280;42354;53.218;6.564;2023-02-16T03:27:11;47001.66;;;-142.92;84.47
56456;BME280;42354;53.218;6.564;2023-02-16T03:29:57;47003.69;;;-142.92;84.39
56456;BME280;42354;53.218;6.564;2023-02-16T03:32:23;47001.66;;;-142.92;84.41
56456;BME280;42354;53.218;6.564;2023-02-16T03:34:49;46997.53;;;-142.92;84.24
56456;BME280;42354;53.218;6.564;2023-02-16T03:37:14;46993.44;;;-142.92;83.97
56456;BME280;42354;53.218;6.564;2023-02-16T03:39:40;47001.66;;;-142.92;83.87
56456;BME280;42354;53.218;6.564;2023-02-16T03:42:24;47003.69;;;-142.92;83.72
56456;BME280;42354;53.218;6.564;2023-02-16T03:44:50;46974.97;;;-142.92;83.77
56456;BME280;42354;53.218;6.564;2023-02-16T03:47:16;46993.44;;;-142.92;83.64
56456;BME280;42354;53.218;6.564;2023-02-16T03:49:41;47016.00;;;-142.92;83.52
56456;BME280;42354;53.218;6.564;2023-02-16T03:52:07;46985.22;;;-142.92;83.60
56456;BME280;42354;53.218;6.564;2023-02-16T03:54:32;46997.53;;;-142.92;83.56
56456;BME280;42354;53.218;6.564;2023-02-16T03:56:58;47001.66;;;-142.92;83.34
56456;BME280;42354;53.218;6.564;2023-02-16T03:59:23;47003.69;;;-142.92;83.41
56456;BME280;42354;53.218;6.564;2023-02-16T04:01:50;46981.13;;;-142.92;83.34
56456;BME280;42354;53.218;6.564;2023-02-16T04:04:16;46985.22;;;-142.92;83.31
56456;BME280;42354;53.218;6.564;2023-02-16T04:06:41;47005.75;;;-142.92;83.23
56456;BME280;42354;53.218;6.564;2023-02-16T04:09:08;47003.69;;;-142.92;83.06
56456;BME280;42354;53.218;6.564;2023-02-16T04:11:33;46995.50;;;-142.92;83.08
56456;BME280;42354;53.218;6.564;2023-02-16T04:14:17;47003.69;;;-142.92;82.90
56456;BME280;42354;53.218;6.564;2023-02-16T04:16:44;46991.38;;;-142.92;82.86
56456;BME280;42354;53.218;6.564;2023-02-16T04:19:10;47007.81;;;-142.92;82.88
56456;BME280;42354;53.218;6.564;2023-02-16T04:21:35;46989.34;;;-142.92;82.84
56456;BME280;42354;53.218;6.564;2023-02-16T04:24:00;47007.81;;;-142.92;82.70
56456;BME280;42354;53.218;6.564;2023-02-16T04:26:26;46985.22;;;-142.92;82.61
56456;BME280;42354;53.218;6.564;2023-02-16T04:28:53;46991.38;;;-142.92;82.68
56456;BME280;42354;53.218;6.564;2023-02-16T04:31:19;47009.84;;;-142.92;82.50
56456;BME280;42354;53.218;6.564;2023-02-16T04:33:44;46981.13;;;-142.92;82.53
56456;BME280;42354;53.218;6.564;2023-02-16T04:36:10;46989.34;;;-142.92;82.51
56456;BME280;42354;53.218;6.564;2023-02-16T04:38:35;46993.44;;;-142.92;82.28
56456;BME280;42354;53.218;6.564;2023-02-16T04:41:00;46991.38;;;-142.92;82.36
56456;BME280;42354;53.218;6.564;2023-02-16T04:43:26;46989.34;;;-142.92;82.25
56456;BME280;42354;53.218;6.564;2023-02-16T04:45:51;46985.22;;;-142.92;82.28
56456;BME280;42354;53.218;6.564;2023-02-16T04:48:16;47005.75;;;-142.92;82.35
56456;BME280;42354;53.218;6.564;2023-02-16T04:50:42;46999.59;;;-142.92;82.48
56456;BME280;42354;53.218;6.564;2023-02-16T04:53:07;47013.97;;;-142.92;82.34
56456;BME280;42354;53.218;6.564;2023-02-16T04:55:32;46989.34;;;-142.92;82.26
56456;BME280;42354;53.218;6.564;2023-02-16T04:57:58;46995.50;;;-142.92;82.30
56456;BME280;42354;53.218;6.564;2023-02-16T05:00:24;46991.38;;;-142.92;82.32
56456;BME280;42354;53.218;6.564;2023-02-16T05:02:49;47007.81;;;-142.92;82.36
56456;BME280;42354;53.218;6.564;2023-02-16T05:05:15;47003.69;;;-142.92;82.40
56456;BME280;42354;53.218;6.564;2023-02-16T05:07:40;46995.50;;;-142.92;82.26
56456;BME280;42354;53.218;6.564;2023-02-16T05:10:06;46985.22;;;-142.92;82.25
56456;BME280;42354;53.218;6.564;2023-02-16T05:12:31;46997.53;;;-142.92;82.39
56456;BME280;42354;53.218;6.564;2023-02-16T05:15:17;47016.00;;;-142.92;82.34
56456;BME280;42354;53.218;6.564;2023-02-16T05:17:42;47007.81;;;-142.92;82.12
56456;BME280;42354;53.218;6.564;2023-02-16T05:20:09;47005.75;;;-142.92;82.21
56456;BME280;42354;53.218;6.564;2023-02-16T05:22:34;47011.91;;;-142.92;82.47
56456;BME280;42354;53.218;6.564;2023-02-16T05:25:05;46995.50;;;-142.92;82.22
56456;BME280;42354;53.218;6.564;2023-02-16T05:27:30;46997.53;;;-142.92;82.23
56456;BME280;42354;53.218;6.564;2023-02-16T05:29:57;46983.19;;;-142.92;82.06
56456;BME280;42354;53.218;6.564;2023-02-16T05:32:22;47005.75;;;-142.92;82.27
56456;BME280;42354;53.218;6.564;2023-02-16T05:34:48;47009.84;;;-142.92;82.24
56456;BME280;42354;53.218;6.564;2023-02-16T05:37:15;47003.69;;;-142.92;82.39
56456;BME280;42354;53.218;6.564;2023-02-16T05:39:41;46991.38;;;-142.92;82.42
56456;BME280;42354;53.218;6.564;2023-02-16T05:42:07;46987.28;;;-142.92;82.37
56456;BME280;42354;53.218;6.564;2023-02-16T05:44:32;47018.06;;;-142.92;82.59
56456;BME280;42354;53.218;6.564;2023-02-16T05:46:57;47003.69;;;-142.92;82.63
56456;BME280;42354;53.218;6.564;2023-02-16T05:49:23;46999.59;;;-142.92;82.46
56456;BME280;42354;53.218;6.564;2023-02-16T05:51:48;46993.44;;;-142.92;82.43
56456;BME280;42354;53.218;6.564;2023-02-16T05:54:14;47005.75;;;-142.92;82.55
56456;BME280;42354;53.218;6.564;2023-02-16T05:56:44;47003.69;;;-142.92;82.69
56456;BME280;42354;53.218;6.564;2023-02-16T05:59:10;46995.50;;;-142.92;82.68
56456;BME280;42354;53.218;6.564;2023-02-16T06:01:35;47007.81;;;-142.92;82.76
56456;BME280;42354;53.218;6.564;2023-02-16T06:04:01;47003.69;;;-142.92;82.98
56456;BME280;42354;53.218;6.564;2023-02-16T06:06:26;47003.69;;;-142.92;82.62
56456;BME280;42354;53.218;6.564;2023-02-16T06:08:51;46997.53;;;-142.92;82.90
56456;BME280;42354;53.218;6.564;2023-02-16T06:11:17;47001.66;;;-142.92;83.17
56456;BME280;42354;53.218;6.564;2023-02-16T06:14:02;47005.75;;;-142.92;83.23
56456;BME280;42354;53.218;6.564;2023-02-16T06:16:30;47005.75;;;-142.92;83.41
56456;BME280;42354;53.218;6.564;2023-02-16T06:18:56;46995.50;;;-142.92;83.36
56456;BME280;42354;53.218;6.564;2023-02-16T06:21:23;46997.53;;;-142.92;83.48
56456;BME280;42354;53.218;6.564;2023-02-16T06:23:48;46991.38;;;-142.92;83.75
56456;BME280;42354;53.218;6.564;2023-02-16T06:26:14;47016.00;;;-142.92;83.88
56456;BME280;42354;53.218;6.564;2023-02-16T06:28:41;47007.81;;;-142.92;84.03
56456;BME280;42354;53.218;6.564;2023-02-16T06:31:07;46993.44;;;-142.92;83.99
56456;BME280;42354;53.218;6.564;2023-02-16T06:33:33;46987.28;;;-142.92;84.06
56456;BME280;42354;53.218;6.564;2023-02-16T06:35:59;47001.66;;;-142.92;84.04
56456;BME280;42354;53.218;6.564;2023-02-16T06:38:24;47005.75;;;-142.92;84.15
56456;BME280;42354;53.218;6.564;2023-02-16T06:40:53;46997.53;;;-142.92;84.10
56456;BME280;42354;53.218;6.564;2023-02-16T06:43:19;46993.44;;;-142.92;84.15
56456;BME280;42354;53.218;6.564;2023-02-16T06:45:45;46981.13;;;-142.92;84.31
56456;BME280;42354;53.218;6.564;2023-02-16T06:48:10;46999.59;;;-142.92;84.22
56456;BME280;42354;53.218;6.564;2023-02-16T06:50:36;47005.75;;;-142.92;84.29
56456;BME280;42354;53.218;6.564;2023-02-16T06:53:01;46999.59;;;-142.92;84.24
56456;BME280;42354;53.218;6.564;2023-02-16T06:55:26;46977.03;;;-142.92;84.24
56456;BME280;42354;53.218;6.564;2023-02-16T06:57:52;47024.22;;;-142.92;84.32
56456;BME280;42354;53.218;6.564;2023-02-16T07:00:18;46983.19;;;-142.92;84.31
56456;BME280;42354;53.218;6.564;2023-02-16T07:02:43;47007.81;;;-142.92;84.24
56456;BME280;42354;53.218;6.564;2023-02-16T07:05:11;46999.59;;;-142.92;84.26
56456;BME280;42354;53.218;6.564;2023-02-16T07:07:36;46999.59;;;-142.92;84.35
56456;BME280;42354;53.218;6.564;2023-02-16T07:10:02;46991.38;;;-142.92;84.21
56456;BME280;42354;53.218;6.564;2023-02-16T07:12:27;46995.50;;;-142.92;84.38
56456;BME280;42354;53.218;6.564;2023-02-16T07:14:53;47022.16;;;-142.92;84.35
56456;BME280;42354;53.218;6.564;2023-02-16T07:17:18;46991.38;;;-142.92;84.29
56456;BME280;42354;53.218;6.564;2023-02-16T07:19:44;47005.75;;;-142.92;84.24
56456;BME280;42354;53.218;6.564;2023-02-16T07:22:09;47009.84;;;-142.92;84.11
56456;BME280;42354;53.218;6.564;2023-02-16T07:24:35;46991.38;;;-142.92;84.07
56456;BME280;42354;53.218;6.564;2023-02-16T07:27:00;46999.59;;;-142.92;84.04
56456;BME280;42354;53.218;6.564;2023-02-16T07:29:25;46993.44;;;-142.92;84.28
56456;BME280;42354;53.218;6.564;2023-02-16T07:31:51;47016.00;;;-142.92;84.11
56456;BME280;42354;53.218;6.564;2023-02-16T07:34:17;46979.06;;;-142.92;83.90
56456;BME280;42354;53.218;6.564;2023-02-16T07:36:43;46999.59;;;-142.92;83.92
56456;BME280;42354;53.218;6.564;2023-02-16T07:39:09;46999.59;;;-142.92;83.93
56456;BME280;42354;53.218;6.564;2023-02-16T07:41:34;46993.44;;;-142.92;83.97
56456;BME280;42354;53.218;6.564;2023-02-16T07:43:59;47013.97;;;-142.92;83.75
56456;BME280;42354;53.218;6.564;2023-02-16T07:46:25;46991.38;;;-142.92;83.99
56456;BME280;42354;53.218;6.564;2023-02-16T07:48:50;47007.81;;;-142.92;84.01
56456;BME280;42354;53.218;6.564;2023-02-16T07:51:23;46985.22;;;-142.92;83.72
56456;BME280;42354;53.218;6.564;2023-02-16T07:53:49;47005.75;;;-142.92;83.86
56456;BME280;42354;53.218;6.564;2023-02-16T07:56:22;46979.06;;;-142.92;83.66
56456;BME280;42354;53.218;6.564;2023-02-16T07:58:51;47007.81;;;-142.92;83.86
56456;BME280;42354;53.218;6.564;2023-02-16T08:01:17;47016.00;;;-142.92;83.85
56456;BME280;42354;53.218;6.564;2023-02-16T08:03:42;46999.59;;;-142.92;83.61
56456;BME280;42354;53.218;6.564;2023-02-16T08:06:08;46991.38;;;-142.92;83.65
56456;BME280;42354;53.218;6.564;2023-02-16T08:08:34;47009.84;;;-142.92;83.58
56456;BME280;42354;53.218;6.564;2023-02-16T08:11:10;47003.69;;;-142.92;83.33
56456;BME280;42354;53.218;6.564;2023-02-16T08:13:35;46989.34;;;-142.92;83.44
56456;BME280;42354;53.218;6.564;2023-02-16T08:16:01;46987.28;;;-142.92;83.34
56456;BME280;42354;53.218;6.564;2023-02-16T08:18:28;47009.84;;;-142.92;83.36
56456;BME280;42354;53.218;6.564;2023-02-16T08:20:54;47001.66;;;-142.92;83.23
56456;BME280;42354;53.218;6.564;2023-02-16T08:23:21;46999.59;;;-142.92;83.30
56456;BME280;42354;53.218;6.564;2023-02-16T08:25:46;46999.59;;;-142.92;83.36
56456;BME280;42354;53.218;6.564;2023-02-16T08:28:11;47003.69;;;-142.92;83.25
56456;BME280;42354;53.218;6.564;2023-02-16T08:30:39;47007.81;;;-142.92;83.23
56456;BME280;42354;53.218;6.564;2023-02-16T08:33:04;46987.28;;;-142.92;83.01
56456;BME280;42354;53.218;6.564;2023-02-16T08:35:30;47007.81;;;-142.92;82.83
56456;BME280;42354;53.218;6.564;2023-02-16T08:37:57;47007.81;;;-142.92;82.98
56456;BME280;42354;53.218;6.564;2023-02-16T08:40:23;46999.59;;;-142.92;83.06
56456;BME280;42354;53.218;6.564;2023-02-16T08:42:50;46999.59;;;-142.92;83.13
56456;BME280;42354;53.218;6.564;2023-02-16T08:45:15;47007.81;;;-142.92;83.12
56456;BME280;42354;53.218;6.564;2023-02-16T08:47:40;47011.91;;;-142.92;83.12
56456;BME280;42354;53.218;6.564;2023-02-16T08:50:06;46993.44;;;-142.92;83.03
56456;BME280;42354;53.218;6.564;2023-02-16T08:52:32;47005.75;;;-142.92;83.19
56456;BME280;42354;53.218;6.564;2023-02-16T08:54:58;47011.91;;;-142.92;83.17
56456;BME280;42354;53.218;6.564;2023-02-16T08:57:24;47001.66;;;-142.92;83.12
56456;BME280;42354;53.218;6.564;2023-02-16T08:59:50;47007.81;;;-142.92;83.19
56456;BME280;42354;53.218;6.564;2023-02-16T09:02:36;47032.44;;;-142.92;83.05
56456;BME280;42354;53.218;6.564;2023-02-16T09:05:02;46995.50;;;-142.92;82.98
56456;BME280;42354;53.218;6.564;2023-02-16T09:07:27;47007.81;;;-142.92;83.03
56456;BME280;42354;53.218;6.564;2023-02-16T09:09:53;47007.81;;;-142.92;82.94
56456;BME280;42354;53.218;6.564;2023-02-16T09:12:18;46981.13;;;-142.92;83.17
56456;BME280;42354;53.218;6.564;2023-02-16T09:14:43;47007.81;;;-142.92;83.08
56456;BME280;42354;53.218;6.564;2023-02-16T09:17:09;46995.50;;;-142.92;82.97
56456;BME280;42354;53.218;6.564;2023-02-16T09:19:36;47011.91;;;-142.92;82.81
56456;BME280;42354;53.218;6.564;2023-02-16T09:22:01;47005.75;;;-142.92;82.97
56456;BME280;42354;53.218;6.564;2023-02-16T09:24:28;46991.38;;;-142.92;82.88
56456;BME280;42354;53.218;6.564;2023-02-16T09:26:53;46995.50;;;-142.92;82.91
56456;BME280;42354;53.218;6.564;2023-02-16T09:29:19;46993.44;;;-142.92;82.69
56456;BME280;42354;53.218;6.564;2023-02-16T09:31:45;46991.38;;;-142.92;82.61
56456;BME280;42354;53.218;6.564;2023-02-16T09:34:19;47007.81;;;-142.92;82.34
56456;BME280;42354;53.218;6.564;2023-02-16T09:36:46;46981.13;;;-142.92;82.48
56456;BME280;42354;53.218;6.564;2023-02-16T09:39:12;47003.69;;;-142.92;82.34
56456;BME280;42354;53.218;6.564;2023-02-16T09:47:16;47009.84;;;-142.92;82.30
56456;BME280;42354;53.218;6.564;2023-02-16T09:49:44;46987.28;;;-142.92;81.96
56456;BME280;42354;53.218;6.564;2023-02-16T09:54:45;46999.59;;;-142.92;81.60
56456;BME280;42354;53.218;6.564;2023-02-16T09:57:32;47005.75;;;-142.92;81.05
56456;BME280;42354;53.218;6.564;2023-02-16T10:05:18;46993.44;;;-142.92;80.52
56456;BME280;42354;53.218;6.564;2023-02-16T10:08:04;47001.66;;;-142.92;80.65
56456;BME280;42354;53.218;6.564;2023-02-16T10:10:43;46995.50;;;-142.92;80.83
56456;BME280;42354;53.218;6.564;2023-02-16T10:13:19;47005.75;;;-142.92;80.91
56456;BME280;42354;53.218;6.564;2023-02-16T10:15:45;47024.22;;;-142.92;81.35
56456;BME280;42354;53.218;6.564;2023-02-16T10:18:27;47005.75;;;-142.92;80.95
56456;BME280;42354;53.218;6.564;2023-02-16T10:20:55;47024.22;;;-142.92;81.40
56456;BME280;42354;53.218;6.564;2023-02-16T10:26:15;47003.69;;;-142.92;81.30
56456;BME280;42354;53.218;6.564;2023-02-16T10:28:46;47003.69;;;-142.92;81.46
56456;BME280;42354;53.218;6.564;2023-02-16T10:31:33;47016.00;;;-142.92;80.95
56456;BME280;42354;53.218;6.564;2023-02-16T10:34:19;47011.91;;;-142.92;80.73
56456;BME280;42354;53.218;6.564;2023-02-16T10:39:57;47016.00;;;-142.92;80.63
56456;BME280;42354;53.218;6.564;2023-02-16T10:42:36;46987.28;;;-142.92;80.41
56456;BME280;42354;53.218;6.564;2023-02-16T10:45:13;46997.53;;;-142.92;80.42
56456;BME280;42354;53.218;6.564;2023-02-16T10:47:45;47007.81;;;-142.92;80.34
56456;BME280;42354;53.218;6.564;2023-02-16T10:50:21;47007.81;;;-142.92;80.03
56456;BME280;42354;53.218;6.564;2023-02-16T10:52:48;46987.28;;;-142.92;80.48
56456;BME280;42354;53.218;6.564;2023-02-16T10:55:14;46991.38;;;-142.92;81.13
56456;BME280;42354;53.218;6.564;2023-02-16T10:57:40;47005.75;;;-142.92;81.48
56456;BME280;42354;53.218;6.564;2023-02-16T11:00:10;46997.53;;;-142.92;81.43
56456;BME280;42354;53.218;6.564;2023-02-16T11:02:44;46987.28;;;-142.92;82.31
56456;BME280;42354;53.218;6.564;2023-02-16T11:05:32;46987.28;;;-142.92;82.85
56456;BME280;42354;53.218;6.564;2023-02-16T11:07:59;47003.69;;;-142.92;83.03
56456;BME280;42354;53.218;6.564;2023-02-16T11:10:46;47011.91;;;-142.92;82.92
56456;BME280;42354;53.218;6.564;2023-02-16T11:13:31;47003.69;;;-142.92;83.03
56456;BME280;42354;53.218;6.564;2023-02-16T11:16:19;47011.91;;;-142.92;83.21
56456;BME280;42354;53.218;6.564;2023-02-16T11:18:56;46989.34;;;-142.92;83.61
56456;BME280;42354;53.218;6.564;2023-02-16T11:21:42;47001.66;;;-142.92;83.43
56456;BME280;42354;53.218;6.564;2023-02-16T11:24:11;46999.59;;;-142.92;83.78
56456;BME280;42354;53.218;6.564;2023-02-16T11:26:38;47003.69;;;-142.92;83.76
56456;BME280;42354;53.218;6.564;2023-02-16T11:29:16;47020.13;;;-142.92;83.99
56456;BME280;42354;53.218;6.564;2023-02-16T11:31:42;46989.34;;;-142.92;84.57
56456;BME280;42354;53.218;6.564;2023-02-16T11:39:55;46995.50;;;-142.92;84.83
56456;BME280;42354;53.218;6.564;2023-02-16T11:42:45;46987.28;;;-142.92;85.24
56456;BME280;42354;53.218;6.564;2023-02-16T11:45:35;46991.38;;;-142.92;85.07
56456;BME280;42354;53.218;6.564;2023-02-16T11:48:06;47030.38;;;-142.92;85.15
56456;BME280;42354;53.218;6.564;2023-02-16T11:50:37;47001.66;;;-142.92;84.96
56456;BME280;42354;53.218;6.564;2023-02-16T11:55:47;46995.50;;;-142.92;84.80
56456;BME280;42354;53.218;6.564;2023-02-16T11:58:15;47011.91;;;-142.92;85.00
56456;BME280;42354;53.218;6.564;2023-02-16T12:00:48;46993.44;;;-142.92;84.84
56456;BME280;42354;53.218;6.564;2023-02-16T12:03:28;47003.69;;;-142.92;85.19
56456;BME280;42354;53.218;6.564;2023-02-16T12:06:18;47016.00;;;-142.92;85.49
56456;BME280;42354;53.218;6.564;2023-02-16T12:11:50;46991.38;;;-142.92;85.13
56456;BME280;42354;53.218;6.564;2023-02-16T12:14:22;47005.75;;;-142.92;84.96
56456;BME280;42354;53.218;6.564;2023-02-16T12:17:12;47011.91;;;-142.92;84.73
56456;BME280;42354;53.218;6.564;2023-02-16T12:20:11;47020.13;;;-142.92;85.03
56456;BME280;42354;53.218;6.564;2023-02-16T12:22:50;46999.59;;;-142.92;84.42
56456;BME280;42354;53.218;6.564;2023-02-16T12:25:41;47009.84;;;-142.92;83.71
56456;BME280;42354;53.218;6.564;2023-02-16T12:34:13;46987.28;;;-142.92;81.45
56456;BME280;42354;53.218;6.564;2023-02-16T12:36:55;47016.00;;;-142.92;81.31
56456;BME280;42354;53.218;6.564;2023-02-16T12:39:43;47016.00;;;-142.92;80.97
56456;BME280;42354;53.218;6.564;2023-02-16T12:42:40;46999.59;;;-142.92;80.08
56456;BME280;42354;53.218;6.564;2023-02-16T12:45:13;47011.91;;;-142.92;79.95
56456;BME280;42354;53.218;6.564;2023-02-16T12:47:44;47016.00;;;-142.92;79.65
56456;BME280;42354;53.218;6.564;2023-02-16T12:50:23;47007.81;;;-142.92;78.66
56456;BME280;42354;53.218;6.564;2023-02-16T12:53:02;47009.84;;;-142.92;77.37
56456;BME280;42354;53.218;6.564;2023-02-16T13:06:01;46987.28;;;-142.92;74.29
56456;BME280;42354;53.218;6.564;2023-02-16T13:08:38;47001.66;;;-142.92;73.70
56456;BME280;42354;53.218;6.564;2023-02-16T13:11:16;47018.06;;;-142.92;73.13
56456;BME280;42354;53.218;6.564;2023-02-16T13:13:46;47011.91;;;-142.92;73.48
56456;BME280;42354;53.218;6.564;2023-02-16T13:18:45;47009.84;;;-142.92;72.75
56456;BME280;42354;53.218;6.564;2023-02-16T13:27:14;46999.59;;;-142.92;71.61
56456;BME280;42354;53.218;6.564;2023-02-16T13:38:52;47005.75;;;-142.92;68.24
56456;BME280;42354;53.218;6.564;2023-02-16T13:41:33;46983.19;;;-142.92;68.05
56456;BME280;42354;53.218;6.564;2023-02-16T13:44:02;46981.13;;;-142.92;67.98
56456;BME280;42354;53.218;6.564;2023-02-16T13:46:33;47001.66;;;-142.92;68.03
56456;BME280;42354;53.218;6.564;2023-02-16T13:49:01;47003.69;;;-142.92;67.89
56456;BME280;42354;53.218;6.564;2023-02-16T13:51:39;46991.38;;;-142.92;66.91
56456;BME280;42354;53.218;6.564;2023-02-16T13:54:21;46997.53;;;-142.92;66.92
56456;BME280;42354;53.218;6.564;2023-02-16T13:56:50;46999.59;;;-142.92;67.22
56456;BME280;42354;53.218;6.564;2023-02-16T14:01:43;47001.66;;;-142.92;66.32
56456;BME280;42354;53.218;6.564;2023-02-16T14:06:50;47001.66;;;-142.92;65.94
56456;BME280;42354;53.218;6.564;2023-02-16T14:14:27;46997.53;;;-142.92;65.25
56456;BME280;42354;53.218;6.564;2023-02-16T14:16:54;47007.81;;;-142.92;65.43
56456;BME280;42354;53.218;6.564;2023-02-16T14:19:24;46997.53;;;-142.92;65.25
56456;BME280;42354;53.218;6.564;2023-02-16T14:21:51;47024.22;;;-142.92;65.38
56456;BME280;42354;53.218;6.564;2023-02-16T14:24:30;47007.81;;;-142.92;65.24
56456;BME280;42354;53.218;6.564;2023-02-16T14:27:08;46995.50;;;-142.92;65.80
56456;BME280;42354;53.218;6.564;2023-02-16T14:32:33;47003.69;;;-142.92;66.56
56456;BME280;42354;53.218;6.564;2023-02-16T14:48:45;46987.28;;;-142.92;66.82
56456;BME280;42354;53.218;6.564;2023-02-16T15:00:18;46997.53;;;-142.92;70.60
56456;BME280;42354;53.218;6.564;2023-02-16T15:02:56;46995.50;;;-142.92;71.45
56456;BME280;42354;53.218;6.564;2023-02-16T15:05:27;46987.28;;;-142.92;71.71